sensor_id;sensor_type;location;lat;lon;timestamp;temperature;humidity
66506;HTU21D;53332;51.082;5.832;2024-01-07T00:00:01;3.72;118.99
66506;HTU21D;53332;51.082;5.832;2024-01-07T00:02:27;3.75;118.99
66506;HTU21D;53332;51.082;5.832;2024-01-07T00:04:52;3.78;118.99
66506;HTU21D;53332;51.082;5.832;2024-01-07T00:07:17;3.79;118.99
66506;HTU21D;53332;51.082;5.832;2024-01-07T00:09:43;3.76;118.99
66506;HTU21D;53332;51.082;5.832;2024-01-07T00:12:09;3.75;118.99
66506;HTU21D;53332;51.082;5.832;2024-01-07T00:14:34;3.72;118.99
66506;HTU21D;53332;51.082;5.832;2024-01-07T00:17:00;3.72;118.99
66506;HTU21D;53332;51.082;5.832;2024-01-07T00:19:25;3.78;118.99
66506;HTU21D;53332;51.082;5.832;2024-01-07T00:21:51;3.84;118.99
66506;HTU21D;53332;51.082;5.832;2024-01-07T00:24:16;3.87;118.99
66506;HTU21D;53332;51.082;5.832;2024-01-07T00:26:42;3.87;118.99
66506;HTU21D;53332;51.082;5.832;2024-01-07T00:29:07;3.89;118.99
66506;HTU21D;53332;51.082;5.832;2024-01-07T00:31:33;3.92;118.99
66506;HTU21D;53332;51.082;5.832;2024-01-07T00:33:58;3.86;118.99
66506;HTU21D;53332;51.082;5.832;2024-01-07T00:36:24;3.88;118.99
66506;HTU21D;53332;51.082;5.832;2024-01-07T00:38:49;3.85;118.99
66506;HTU21D;53332;51.082;5.832;2024-01-07T00:41:15;3.88;118.99
66506;HTU21D;53332;51.082;5.832;2024-01-07T00:43:41;3.80;118.99
66506;HTU21D;53332;51.082;5.832;2024-01-07T00:46:06;3.78;118.99
66506;HTU21D;53332;51.082;5.832;2024-01-07T00:48:32;3.86;118.99
66506;HTU21D;53332;51.082;5.832;2024-01-07T00:50:58;3.85;118.99
66506;HTU21D;53332;51.082;5.832;2024-01-07T00:53:23;3.85;118.99
66506;HTU21D;53332;51.082;5.832;2024-01-07T00:55:49;3.88;118.99
66506;HTU21D;53332;51.082;5.832;2024-01-07T00:58:14;3.85;118.99
66506;HTU21D;53332;51.082;5.832;2024-01-07T01:00:40;3.86;118.99
66506;HTU21D;53332;51.082;5.832;2024-01-07T01:03:05;3.83;118.99
66506;HTU21D;53332;51.082;5.832;2024-01-07T01:05:31;3.83;118.99
66506;HTU21D;53332;51.082;5.832;2024-01-07T01:07:56;3.87;118.99
66506;HTU21D;53332;51.082;5.832;2024-01-07T01:10:22;3.85;118.99
66506;HTU21D;53332;51.082;5.832;2024-01-07T01:12:47;3.88;118.99
66506;HTU21D;53332;51.082;5.832;2024-01-07T01:15:13;3.90;118.99
66506;HTU21D;53332;51.082;5.832;2024-01-07T01:17:42;3.93;118.99
66506;HTU21D;53332;51.082;5.832;2024-01-07T01:20:08;3.92;118.99
66506;HTU21D;53332;51.082;5.832;2024-01-07T01:22:33;3.89;118.99
66506;HTU21D;53332;51.082;5.832;2024-01-07T01:24:59;3.87;118.99
66506;HTU21D;53332;51.082;5.832;2024-01-07T01:27:25;3.90;118.99
66506;HTU21D;53332;51.082;5.832;2024-01-07T01:29:51;3.85;118.99
66506;HTU21D;53332;51.082;5.832;2024-01-07T01:32:16;3.88;118.99
66506;HTU21D;53332;51.082;5.832;2024-01-07T01:34:42;3.86;118.99
66506;HTU21D;53332;51.082;5.832;2024-01-07T01:37:08;3.88;118.99
66506;HTU21D;53332;51.082;5.832;2024-01-07T01:39:34;3.86;118.99
66506;HTU21D;53332;51.082;5.832;2024-01-07T01:42:00;3.82;118.99
66506;HTU21D;53332;51.082;5.832;2024-01-07T01:44:25;3.84;118.99
66506;HTU21D;53332;51.082;5.832;2024-01-07T01:46:53;3.84;118.99
66506;HTU21D;53332;51.082;5.832;2024-01-07T01:49:20;3.85;118.99
66506;HTU21D;53332;51.082;5.832;2024-01-07T01:51:46;3.83;118.99
66506;HTU21D;53332;51.082;5.832;2024-01-07T01:54:12;3.77;118.99
66506;HTU21D;53332;51.082;5.832;2024-01-07T01:56:38;3.79;118.99
66506;HTU21D;53332;51.082;5.832;2024-01-07T01:59:04;3.79;118.99
66506;HTU21D;53332;51.082;5.832;2024-01-07T02:01:30;3.79;118.99
66506;HTU21D;53332;51.082;5.832;2024-01-07T02:03:57;3.76;118.99
66506;HTU21D;53332;51.082;5.832;2024-01-07T02:06:23;3.75;118.99
66506;HTU21D;53332;51.082;5.832;2024-01-07T02:08:50;3.79;118.99
66506;HTU21D;53332;51.082;5.832;2024-01-07T02:11:20;3.78;118.99
66506;HTU21D;53332;51.082;5.832;2024-01-07T02:13:46;3.77;118.99
66506;HTU21D;53332;51.082;5.832;2024-01-07T02:16:12;3.73;118.99
66506;HTU21D;53332;51.082;5.832;2024-01-07T02:18:41;3.70;118.99
66506;HTU21D;53332;51.082;5.832;2024-01-07T02:21:08;3.73;118.99
66506;HTU21D;53332;51.082;5.832;2024-01-07T02:23:34;3.71;118.99
66506;HTU21D;53332;51.082;5.832;2024-01-07T02:25:59;3.64;118.99
66506;HTU21D;53332;51.082;5.832;2024-01-07T02:28:25;3.61;118.99
66506;HTU21D;53332;51.082;5.832;2024-01-07T02:30:50;3.60;118.99
66506;HTU21D;53332;51.082;5.832;2024-01-07T02:33:16;3.64;118.99
66506;HTU21D;53332;51.082;5.832;2024-01-07T02:35:41;3.68;118.99
66506;HTU21D;53332;51.082;5.832;2024-01-07T02:38:07;3.73;118.99
66506;HTU21D;53332;51.082;5.832;2024-01-07T02:40:32;3.80;118.99
66506;HTU21D;53332;51.082;5.832;2024-01-07T02:42:58;3.76;118.99
66506;HTU21D;53332;51.082;5.832;2024-01-07T02:45:24;3.74;118.99
66506;HTU21D;53332;51.082;5.832;2024-01-07T02:47:49;3.77;118.99
66506;HTU21D;53332;51.082;5.832;2024-01-07T02:50:15;3.79;118.99
66506;HTU21D;53332;51.082;5.832;2024-01-07T02:52:44;3.77;118.99
66506;HTU21D;53332;51.082;5.832;2024-01-07T02:55:09;3.79;118.99
66506;HTU21D;53332;51.082;5.832;2024-01-07T02:57:35;3.85;118.99
66506;HTU21D;53332;51.082;5.832;2024-01-07T03:00:00;3.75;118.99
66506;HTU21D;53332;51.082;5.832;2024-01-07T03:02:26;3.70;118.99
66506;HTU21D;53332;51.082;5.832;2024-01-07T03:04:52;3.72;118.99
66506;HTU21D;53332;51.082;5.832;2024-01-07T03:07:17;3.75;118.99
66506;HTU21D;53332;51.082;5.832;2024-01-07T03:09:43;3.71;118.99
66506;HTU21D;53332;51.082;5.832;2024-01-07T03:12:08;3.73;118.99
66506;HTU21D;53332;51.082;5.832;2024-01-07T03:14:34;3.75;118.99
66506;HTU21D;53332;51.082;5.832;2024-01-07T03:16:59;3.76;118.99
66506;HTU21D;53332;51.082;5.832;2024-01-07T03:19:25;3.74;118.99
66506;HTU21D;53332;51.082;5.832;2024-01-07T03:21:51;3.79;118.99
66506;HTU21D;53332;51.082;5.832;2024-01-07T03:24:16;3.78;118.99
66506;HTU21D;53332;51.082;5.832;2024-01-07T03:26:42;3.82;118.99
66506;HTU21D;53332;51.082;5.832;2024-01-07T03:29:07;3.76;118.99
66506;HTU21D;53332;51.082;5.832;2024-01-07T03:31:33;3.74;118.99
66506;HTU21D;53332;51.082;5.832;2024-01-07T03:33:59;3.79;118.99
66506;HTU21D;53332;51.082;5.832;2024-01-07T03:36:24;3.78;118.99
66506;HTU21D;53332;51.082;5.832;2024-01-07T03:38:50;3.74;118.99
66506;HTU21D;53332;51.082;5.832;2024-01-07T03:41:17;3.73;118.99
66506;HTU21D;53332;51.082;5.832;2024-01-07T03:43:46;3.65;118.99
66506;HTU21D;53332;51.082;5.832;2024-01-07T03:46:12;3.71;118.99
66506;HTU21D;53332;51.082;5.832;2024-01-07T03:48:38;3.77;118.99
66506;HTU21D;53332;51.082;5.832;2024-01-07T03:51:03;3.75;118.99
66506;HTU21D;53332;51.082;5.832;2024-01-07T03:53:29;3.74;118.99
66506;HTU21D;53332;51.082;5.832;2024-01-07T03:55:54;3.73;118.99
66506;HTU21D;53332;51.082;5.832;2024-01-07T03:58:20;3.73;118.99
66506;HTU21D;53332;51.082;5.832;2024-01-07T04:00:45;3.74;118.99
66506;HTU21D;53332;51.082;5.832;2024-01-07T04:03:11;3.74;118.99
66506;HTU21D;53332;51.082;5.832;2024-01-07T04:05:36;3.77;118.99
66506;HTU21D;53332;51.082;5.832;2024-01-07T04:08:03;3.75;118.99
66506;HTU21D;53332;51.082;5.832;2024-01-07T04:10:29;3.74;118.99
66506;HTU21D;53332;51.082;5.832;2024-01-07T04:12:55;3.71;118.99
66506;HTU21D;53332;51.082;5.832;2024-01-07T04:15:20;3.73;118.99
66506;HTU21D;53332;51.082;5.832;2024-01-07T04:17:46;3.70;118.99
66506;HTU21D;53332;51.082;5.832;2024-01-07T04:20:14;3.55;118.99
66506;HTU21D;53332;51.082;5.832;2024-01-07T04:22:40;3.57;118.99
66506;HTU21D;53332;51.082;5.832;2024-01-07T04:25:06;3.56;118.99
66506;HTU21D;53332;51.082;5.832;2024-01-07T04:27:36;3.58;118.99
66506;HTU21D;53332;51.082;5.832;2024-01-07T04:30:02;3.62;118.99
66506;HTU21D;53332;51.082;5.832;2024-01-07T04:32:27;3.58;118.99
66506;HTU21D;53332;51.082;5.832;2024-01-07T04:34:53;3.61;118.99
66506;HTU21D;53332;51.082;5.832;2024-01-07T04:37:18;3.58;118.99
66506;HTU21D;53332;51.082;5.832;2024-01-07T04:39:44;3.56;118.99
66506;HTU21D;53332;51.082;5.832;2024-01-07T04:42:09;3.53;118.99
66506;HTU21D;53332;51.082;5.832;2024-01-07T04:44:35;3.54;118.99
66506;HTU21D;53332;51.082;5.832;2024-01-07T04:47:00;3.53;118.99
66506;HTU21D;53332;51.082;5.832;2024-01-07T04:49:26;3.58;118.99
66506;HTU21D;53332;51.082;5.832;2024-01-07T04:51:52;3.63;118.99
66506;HTU21D;53332;51.082;5.832;2024-01-07T04:54:17;3.64;118.99
66506;HTU21D;53332;51.082;5.832;2024-01-07T04:56:44;3.63;118.99
66506;HTU21D;53332;51.082;5.832;2024-01-07T04:59:09;3.62;118.99
66506;HTU21D;53332;51.082;5.832;2024-01-07T05:01:35;3.65;118.99
66506;HTU21D;53332;51.082;5.832;2024-01-07T05:04:04;3.67;118.99
66506;HTU21D;53332;51.082;5.832;2024-01-07T05:06:29;3.75;118.99
66506;HTU21D;53332;51.082;5.832;2024-01-07T05:08:55;3.59;118.99
66506;HTU21D;53332;51.082;5.832;2024-01-07T05:11:20;3.55;118.99
66506;HTU21D;53332;51.082;5.832;2024-01-07T05:13:46;3.55;118.99
66506;HTU21D;53332;51.082;5.832;2024-01-07T05:16:19;3.52;118.99
66506;HTU21D;53332;51.082;5.832;2024-01-07T05:18:44;3.52;118.99
66506;HTU21D;53332;51.082;5.832;2024-01-07T05:21:14;3.52;118.99
66506;HTU21D;53332;51.082;5.832;2024-01-07T05:23:41;3.50;118.99
66506;HTU21D;53332;51.082;5.832;2024-01-07T05:26:07;3.46;118.99
66506;HTU21D;53332;51.082;5.832;2024-01-07T05:28:32;3.45;118.99
66506;HTU21D;53332;51.082;5.832;2024-01-07T05:30:58;3.46;118.99
66506;HTU21D;53332;51.082;5.832;2024-01-07T05:33:23;3.50;118.99
66506;HTU21D;53332;51.082;5.832;2024-01-07T05:35:49;3.44;118.99
66506;HTU21D;53332;51.082;5.832;2024-01-07T05:38:14;3.34;118.99
66506;HTU21D;53332;51.082;5.832;2024-01-07T05:40:40;3.34;118.99
66506;HTU21D;53332;51.082;5.832;2024-01-07T05:43:05;3.39;118.99
66506;HTU21D;53332;51.082;5.832;2024-01-07T05:45:31;3.41;118.99
66506;HTU21D;53332;51.082;5.832;2024-01-07T05:47:56;3.39;118.99
66506;HTU21D;53332;51.082;5.832;2024-01-07T05:50:22;3.32;118.99
66506;HTU21D;53332;51.082;5.832;2024-01-07T05:52:47;3.38;118.99
66506;HTU21D;53332;51.082;5.832;2024-01-07T05:55:13;3.28;118.99
66506;HTU21D;53332;51.082;5.832;2024-01-07T05:57:38;3.23;118.99
66506;HTU21D;53332;51.082;5.832;2024-01-07T06:00:04;3.31;118.99
66506;HTU21D;53332;51.082;5.832;2024-01-07T06:02:30;3.30;118.99
66506;HTU21D;53332;51.082;5.832;2024-01-07T06:04:56;3.27;118.99
66506;HTU21D;53332;51.082;5.832;2024-01-07T06:07:21;3.29;118.99
66506;HTU21D;53332;51.082;5.832;2024-01-07T06:09:47;3.28;118.99
66506;HTU21D;53332;51.082;5.832;2024-01-07T06:12:13;3.21;118.99
66506;HTU21D;53332;51.082;5.832;2024-01-07T06:14:39;3.18;118.99
66506;HTU21D;53332;51.082;5.832;2024-01-07T06:17:04;3.28;118.99
66506;HTU21D;53332;51.082;5.832;2024-01-07T06:19:30;3.32;118.99
66506;HTU21D;53332;51.082;5.832;2024-01-07T06:21:56;3.23;118.99
66506;HTU21D;53332;51.082;5.832;2024-01-07T06:24:21;3.24;118.99
66506;HTU21D;53332;51.082;5.832;2024-01-07T06:26:47;3.12;118.99
66506;HTU21D;53332;51.082;5.832;2024-01-07T06:29:12;3.10;118.99
66506;HTU21D;53332;51.082;5.832;2024-01-07T06:31:44;3.13;118.99
66506;HTU21D;53332;51.082;5.832;2024-01-07T06:34:14;3.16;118.99
66506;HTU21D;53332;51.082;5.832;2024-01-07T06:36:40;3.08;118.99
66506;HTU21D;53332;51.082;5.832;2024-01-07T06:39:09;3.06;118.99
66506;HTU21D;53332;51.082;5.832;2024-01-07T06:41:35;3.11;118.99
66506;HTU21D;53332;51.082;5.832;2024-01-07T06:44:02;3.11;118.99
66506;HTU21D;53332;51.082;5.832;2024-01-07T06:46:28;3.14;118.99
66506;HTU21D;53332;51.082;5.832;2024-01-07T06:48:53;3.14;118.99
66506;HTU21D;53332;51.082;5.832;2024-01-07T06:51:19;3.15;118.99
66506;HTU21D;53332;51.082;5.832;2024-01-07T06:53:44;3.16;118.99
66506;HTU21D;53332;51.082;5.832;2024-01-07T06:56:10;3.13;118.99
66506;HTU21D;53332;51.082;5.832;2024-01-07T06:58:35;3.13;118.99
66506;HTU21D;53332;51.082;5.832;2024-01-07T07:01:01;3.11;118.99
66506;HTU21D;53332;51.082;5.832;2024-01-07T07:03:28;3.14;118.99
66506;HTU21D;53332;51.082;5.832;2024-01-07T07:05:53;3.12;118.99
66506;HTU21D;53332;51.082;5.832;2024-01-07T07:08:19;3.11;118.99
66506;HTU21D;53332;51.082;5.832;2024-01-07T07:10:44;3.14;118.99
66506;HTU21D;53332;51.082;5.832;2024-01-07T07:13:11;3.13;118.99
66506;HTU21D;53332;51.082;5.832;2024-01-07T07:15:37;3.08;118.99
66506;HTU21D;53332;51.082;5.832;2024-01-07T07:18:03;3.15;118.99
66506;HTU21D;53332;51.082;5.832;2024-01-07T07:20:28;3.01;118.99
66506;HTU21D;53332;51.082;5.832;2024-01-07T07:22:54;2.99;118.99
66506;HTU21D;53332;51.082;5.832;2024-01-07T07:25:19;3.02;118.99
66506;HTU21D;53332;51.082;5.832;2024-01-07T07:27:45;3.06;118.99
66506;HTU21D;53332;51.082;5.832;2024-01-07T07:30:10;3.02;118.99
66506;HTU21D;53332;51.082;5.832;2024-01-07T07:32:39;3.06;118.99
66506;HTU21D;53332;51.082;5.832;2024-01-07T07:35:05;3.02;118.99
66506;HTU21D;53332;51.082;5.832;2024-01-07T07:37:32;2.83;118.99
66506;HTU21D;53332;51.082;5.832;2024-01-07T07:39:58;2.86;118.99
66506;HTU21D;53332;51.082;5.832;2024-01-07T07:42:23;2.83;118.99
66506;HTU21D;53332;51.082;5.832;2024-01-07T07:44:49;2.81;118.99
66506;HTU21D;53332;51.082;5.832;2024-01-07T07:47:15;2.83;118.99
66506;HTU21D;53332;51.082;5.832;2024-01-07T07:49:40;2.90;118.99
66506;HTU21D;53332;51.082;5.832;2024-01-07T07:52:09;2.76;118.99
66506;HTU21D;53332;51.082;5.832;2024-01-07T07:54:37;2.70;118.99
66506;HTU21D;53332;51.082;5.832;2024-01-07T07:57:02;2.76;118.99
66506;HTU21D;53332;51.082;5.832;2024-01-07T07:59:28;2.73;118.99
66506;HTU21D;53332;51.082;5.832;2024-01-07T08:01:53;2.75;118.99
66506;HTU21D;53332;51.082;5.832;2024-01-07T08:04:19;2.73;118.99
66506;HTU21D;53332;51.082;5.832;2024-01-07T08:06:45;2.67;118.99
66506;HTU21D;53332;51.082;5.832;2024-01-07T08:09:10;2.69;118.99
66506;HTU21D;53332;51.082;5.832;2024-01-07T08:11:36;2.67;118.99
66506;HTU21D;53332;51.082;5.832;2024-01-07T08:14:01;2.61;118.99
66506;HTU21D;53332;51.082;5.832;2024-01-07T08:16:27;2.67;118.99
66506;HTU21D;53332;51.082;5.832;2024-01-07T08:18:53;2.69;118.99
66506;HTU21D;53332;51.082;5.832;2024-01-07T08:21:22;2.49;118.99
66506;HTU21D;53332;51.082;5.832;2024-01-07T08:23:51;2.45;118.99
66506;HTU21D;53332;51.082;5.832;2024-01-07T08:26:20;2.53;118.99
66506;HTU21D;53332;51.082;5.832;2024-01-07T08:28:45;2.46;118.99
66506;HTU21D;53332;51.082;5.832;2024-01-07T08:31:11;2.28;118.99
66506;HTU21D;53332;51.082;5.832;2024-01-07T08:33:36;2.32;118.99
66506;HTU21D;53332;51.082;5.832;2024-01-07T08:36:02;2.26;118.99
66506;HTU21D;53332;51.082;5.832;2024-01-07T08:38:28;2.21;118.99
66506;HTU21D;53332;51.082;5.832;2024-01-07T08:40:53;2.29;118.99
66506;HTU21D;53332;51.082;5.832;2024-01-07T08:43:19;2.17;118.99
66506;HTU21D;53332;51.082;5.832;2024-01-07T08:45:44;2.15;118.99
66506;HTU21D;53332;51.082;5.832;2024-01-07T08:48:10;2.36;118.99
66506;HTU21D;53332;51.082;5.832;2024-01-07T08:50:37;2.21;118.99
66506;HTU21D;53332;51.082;5.832;2024-01-07T08:53:03;2.19;118.99
66506;HTU21D;53332;51.082;5.832;2024-01-07T08:55:29;2.10;118.99
66506;HTU21D;53332;51.082;5.832;2024-01-07T08:57:54;2.29;118.99
66506;HTU21D;53332;51.082;5.832;2024-01-07T09:00:20;2.20;118.99
66506;HTU21D;53332;51.082;5.832;2024-01-07T09:02:46;2.08;118.99
66506;HTU21D;53332;51.082;5.832;2024-01-07T09:05:12;2.26;118.99
66506;HTU21D;53332;51.082;5.832;2024-01-07T09:07:38;2.19;118.99
66506;HTU21D;53332;51.082;5.832;2024-01-07T09:10:04;2.21;118.99
66506;HTU21D;53332;51.082;5.832;2024-01-07T09:12:34;2.02;118.99
66506;HTU21D;53332;51.082;5.832;2024-01-07T09:14:59;2.02;118.99
66506;HTU21D;53332;51.082;5.832;2024-01-07T09:17:25;2.13;118.99
66506;HTU21D;53332;51.082;5.832;2024-01-07T09:19:50;2.22;118.99
66506;HTU21D;53332;51.082;5.832;2024-01-07T09:22:16;1.97;118.99
66506;HTU21D;53332;51.082;5.832;2024-01-07T09:24:41;1.91;118.99
66506;HTU21D;53332;51.082;5.832;2024-01-07T09:27:07;2.10;118.99
66506;HTU21D;53332;51.082;5.832;2024-01-07T09:29:32;2.12;118.99
66506;HTU21D;53332;51.082;5.832;2024-01-07T09:31:58;2.00;118.99
66506;HTU21D;53332;51.082;5.832;2024-01-07T09:34:24;1.96;118.99
66506;HTU21D;53332;51.082;5.832;2024-01-07T09:36:50;1.98;118.99
66506;HTU21D;53332;51.082;5.832;2024-01-07T09:39:15;1.98;118.99
66506;HTU21D;53332;51.082;5.832;2024-01-07T09:41:41;1.86;118.99
66506;HTU21D;53332;51.082;5.832;2024-01-07T09:44:08;1.98;118.99
66506;HTU21D;53332;51.082;5.832;2024-01-07T09:46:37;1.93;118.99
66506;HTU21D;53332;51.082;5.832;2024-01-07T09:49:02;1.85;118.99
66506;HTU21D;53332;51.082;5.832;2024-01-07T09:51:29;1.87;118.99
66506;HTU21D;53332;51.082;5.832;2024-01-07T09:54:02;1.83;118.99
66506;HTU21D;53332;51.082;5.832;2024-01-07T09:56:38;1.96;118.99
66506;HTU21D;53332;51.082;5.832;2024-01-07T09:59:07;1.82;118.99
66506;HTU21D;53332;51.082;5.832;2024-01-07T10:01:34;1.92;118.99
66506;HTU21D;53332;51.082;5.832;2024-01-07T10:04:01;1.95;118.99
66506;HTU21D;53332;51.082;5.832;2024-01-07T10:06:27;2.06;118.99
66506;HTU21D;53332;51.082;5.832;2024-01-07T10:08:52;2.02;118.99
66506;HTU21D;53332;51.082;5.832;2024-01-07T10:11:18;1.99;118.99
66506;HTU21D;53332;51.082;5.832;2024-01-07T10:13:46;2.03;118.99
66506;HTU21D;53332;51.082;5.832;2024-01-07T10:16:16;2.15;118.99
66506;HTU21D;53332;51.082;5.832;2024-01-07T10:18:42;2.14;118.99
66506;HTU21D;53332;51.082;5.832;2024-01-07T10:21:07;2.15;118.99
66506;HTU21D;53332;51.082;5.832;2024-01-07T10:23:33;2.06;118.99
66506;HTU21D;53332;51.082;5.832;2024-01-07T10:25:59;2.22;118.99
66506;HTU21D;53332;51.082;5.832;2024-01-07T10:28:24;2.32;118.99
66506;HTU21D;53332;51.082;5.832;2024-01-07T10:30:50;2.23;118.99
66506;HTU21D;53332;51.082;5.832;2024-01-07T10:33:19;2.19;118.99
66506;HTU21D;53332;51.082;5.832;2024-01-07T10:35:52;2.28;118.99
66506;HTU21D;53332;51.082;5.832;2024-01-07T10:38:21;2.49;118.99
66506;HTU21D;53332;51.082;5.832;2024-01-07T10:40:50;2.24;118.99
66506;HTU21D;53332;51.082;5.832;2024-01-07T10:43:17;2.24;118.99
66506;HTU21D;53332;51.082;5.832;2024-01-07T10:45:47;2.29;118.99
66506;HTU21D;53332;51.082;5.832;2024-01-07T10:48:19;2.22;118.99
66506;HTU21D;53332;51.082;5.832;2024-01-07T10:50:47;2.30;118.99
66506;HTU21D;53332;51.082;5.832;2024-01-07T10:53:20;2.25;118.99
66506;HTU21D;53332;51.082;5.832;2024-01-07T10:55:54;2.38;118.99
66506;HTU21D;53332;51.082;5.832;2024-01-07T10:58:26;2.25;118.99
66506;HTU21D;53332;51.082;5.832;2024-01-07T11:00:52;2.26;118.99
66506;HTU21D;53332;51.082;5.832;2024-01-07T11:03:28;2.20;118.99
66506;HTU21D;53332;51.082;5.832;2024-01-07T11:06:20;2.43;118.99
66506;HTU21D;53332;51.082;5.832;2024-01-07T11:09:12;2.27;118.99
66506;HTU21D;53332;51.082;5.832;2024-01-07T11:11:42;2.19;118.99
66506;HTU21D;53332;51.082;5.832;2024-01-07T11:17:12;2.25;118.99
66506;HTU21D;53332;51.082;5.832;2024-01-07T11:19:50;2.43;118.99
66506;HTU21D;53332;51.082;5.832;2024-01-07T11:22:26;2.28;118.99
66506;HTU21D;53332;51.082;5.832;2024-01-07T11:24:59;2.40;118.99
66506;HTU21D;53332;51.082;5.832;2024-01-07T11:27:29;2.30;118.99
66506;HTU21D;53332;51.082;5.832;2024-01-07T11:30:07;2.37;118.99
66506;HTU21D;53332;51.082;5.832;2024-01-07T11:32:35;2.41;118.99
66506;HTU21D;53332;51.082;5.832;2024-01-07T11:35:01;2.38;118.99
66506;HTU21D;53332;51.082;5.832;2024-01-07T11:37:27;2.45;118.99
66506;HTU21D;53332;51.082;5.832;2024-01-07T11:39:57;2.46;118.99
66506;HTU21D;53332;51.082;5.832;2024-01-07T11:42:23;2.23;118.99
66506;HTU21D;53332;51.082;5.832;2024-01-07T11:44:54;2.20;118.99
66506;HTU21D;53332;51.082;5.832;2024-01-07T11:47:21;2.19;118.99
66506;HTU21D;53332;51.082;5.832;2024-01-07T11:49:47;2.28;118.99
66506;HTU21D;53332;51.082;5.832;2024-01-07T11:52:15;2.14;118.99
66506;HTU21D;53332;51.082;5.832;2024-01-07T11:54:41;2.05;118.99
66506;HTU21D;53332;51.082;5.832;2024-01-07T11:57:08;2.17;118.99
66506;HTU21D;53332;51.082;5.832;2024-01-07T11:59:34;2.26;118.99
66506;HTU21D;53332;51.082;5.832;2024-01-07T12:02:01;2.13;118.99
66506;HTU21D;53332;51.082;5.832;2024-01-07T12:04:27;2.08;118.99
66506;HTU21D;53332;51.082;5.832;2024-01-07T12:06:53;2.22;118.99
66506;HTU21D;53332;51.082;5.832;2024-01-07T12:09:19;2.23;118.99
66506;HTU21D;53332;51.082;5.832;2024-01-07T12:11:44;2.24;118.99
66506;HTU21D;53332;51.082;5.832;2024-01-07T12:14:11;2.35;118.99
66506;HTU21D;53332;51.082;5.832;2024-01-07T12:16:37;2.28;118.99
66506;HTU21D;53332;51.082;5.832;2024-01-07T12:19:03;2.20;118.99
66506;HTU21D;53332;51.082;5.832;2024-01-07T12:21:29;2.20;118.99
66506;HTU21D;53332;51.082;5.832;2024-01-07T12:23:55;2.38;118.99
66506;HTU21D;53332;51.082;5.832;2024-01-07T12:26:27;2.50;118.99
66506;HTU21D;53332;51.082;5.832;2024-01-07T12:28:54;2.21;118.99
66506;HTU21D;53332;51.082;5.832;2024-01-07T12:31:20;2.20;118.99
66506;HTU21D;53332;51.082;5.832;2024-01-07T12:33:47;2.26;118.99
66506;HTU21D;53332;51.082;5.832;2024-01-07T12:36:12;2.26;118.99
66506;HTU21D;53332;51.082;5.832;2024-01-07T12:38:38;2.24;118.99
66506;HTU21D;53332;51.082;5.832;2024-01-07T12:41:05;2.13;118.99
66506;HTU21D;53332;51.082;5.832;2024-01-07T12:43:31;2.21;118.99
66506;HTU21D;53332;51.082;5.832;2024-01-07T12:45:56;2.06;118.99
66506;HTU21D;53332;51.082;5.832;2024-01-07T12:48:23;1.98;118.99
66506;HTU21D;53332;51.082;5.832;2024-01-07T12:50:49;2.01;118.99
66506;HTU21D;53332;51.082;5.832;2024-01-07T12:53:14;2.06;118.99
66506;HTU21D;53332;51.082;5.832;2024-01-07T12:55:40;2.23;118.99
66506;HTU21D;53332;51.082;5.832;2024-01-07T12:58:06;2.23;118.99
66506;HTU21D;53332;51.082;5.832;2024-01-07T13:00:31;2.16;118.99
66506;HTU21D;53332;51.082;5.832;2024-01-07T13:02:58;2.19;118.99
66506;HTU21D;53332;51.082;5.832;2024-01-07T13:05:24;2.00;118.99
66506;HTU21D;53332;51.082;5.832;2024-01-07T13:07:50;2.10;118.99
66506;HTU21D;53332;51.082;5.832;2024-01-07T13:10:16;2.13;118.99
66506;HTU21D;53332;51.082;5.832;2024-01-07T13:12:42;2.12;118.99
66506;HTU21D;53332;51.082;5.832;2024-01-07T13:15:08;2.08;118.99
66506;HTU21D;53332;51.082;5.832;2024-01-07T13:17:33;2.12;118.99
66506;HTU21D;53332;51.082;5.832;2024-01-07T13:19:59;2.44;118.99
66506;HTU21D;53332;51.082;5.832;2024-01-07T13:22:25;2.16;118.99
66506;HTU21D;53332;51.082;5.832;2024-01-07T13:24:51;2.09;118.99
66506;HTU21D;53332;51.082;5.832;2024-01-07T13:27:16;1.98;118.99
66506;HTU21D;53332;51.082;5.832;2024-01-07T13:29:46;1.95;118.99
66506;HTU21D;53332;51.082;5.832;2024-01-07T13:32:15;1.95;118.99
66506;HTU21D;53332;51.082;5.832;2024-01-07T13:34:43;2.01;118.99
66506;HTU21D;53332;51.082;5.832;2024-01-07T13:37:08;2.16;118.99
66506;HTU21D;53332;51.082;5.832;2024-01-07T13:39:34;2.12;118.99
66506;HTU21D;53332;51.082;5.832;2024-01-07T13:42:00;2.00;118.99
66506;HTU21D;53332;51.082;5.832;2024-01-07T13:44:25;1.80;118.99
66506;HTU21D;53332;51.082;5.832;2024-01-07T13:46:51;1.88;118.99
66506;HTU21D;53332;51.082;5.832;2024-01-07T13:49:17;2.12;118.99
66506;HTU21D;53332;51.082;5.832;2024-01-07T13:51:43;2.03;118.99
66506;HTU21D;53332;51.082;5.832;2024-01-07T13:54:09;1.99;118.99
66506;HTU21D;53332;51.082;5.832;2024-01-07T13:56:43;1.70;118.99
66506;HTU21D;53332;51.082;5.832;2024-01-07T13:59:10;1.67;118.99
66506;HTU21D;53332;51.082;5.832;2024-01-07T14:01:36;1.81;118.99
66506;HTU21D;53332;51.082;5.832;2024-01-07T14:04:05;1.98;118.99
66506;HTU21D;53332;51.082;5.832;2024-01-07T14:06:31;1.75;118.99
66506;HTU21D;53332;51.082;5.832;2024-01-07T14:08:57;1.88;118.99
66506;HTU21D;53332;51.082;5.832;2024-01-07T14:11:23;1.82;118.99
66506;HTU21D;53332;51.082;5.832;2024-01-07T14:13:48;1.83;118.99
66506;HTU21D;53332;51.082;5.832;2024-01-07T14:16:14;1.83;118.99
66506;HTU21D;53332;51.082;5.832;2024-01-07T14:18:40;1.64;118.99
66506;HTU21D;53332;51.082;5.832;2024-01-07T14:21:06;1.76;118.99
66506;HTU21D;53332;51.082;5.832;2024-01-07T14:23:32;1.66;118.99
66506;HTU21D;53332;51.082;5.832;2024-01-07T14:25:59;1.76;118.99
66506;HTU21D;53332;51.082;5.832;2024-01-07T14:28:25;1.90;118.99
66506;HTU21D;53332;51.082;5.832;2024-01-07T14:30:50;1.62;118.99
66506;HTU21D;53332;51.082;5.832;2024-01-07T14:33:16;1.58;118.99
66506;HTU21D;53332;51.082;5.832;2024-01-07T14:35:41;1.75;118.99
66506;HTU21D;53332;51.082;5.832;2024-01-07T14:38:07;1.64;118.99
66506;HTU21D;53332;51.082;5.832;2024-01-07T14:40:34;1.64;118.99
66506;HTU21D;53332;51.082;5.832;2024-01-07T14:43:00;1.53;118.99
66506;HTU21D;53332;51.082;5.832;2024-01-07T14:45:29;1.42;118.99
66506;HTU21D;53332;51.082;5.832;2024-01-07T14:47:54;1.49;118.99
66506;HTU21D;53332;51.082;5.832;2024-01-07T14:50:20;1.48;115.83
66506;HTU21D;53332;51.082;5.832;2024-01-07T14:52:46;1.65;118.99
66506;HTU21D;53332;51.082;5.832;2024-01-07T14:55:12;1.39;118.99
66506;HTU21D;53332;51.082;5.832;2024-01-07T14:57:39;1.50;118.99
66506;HTU21D;53332;51.082;5.832;2024-01-07T15:00:05;1.23;118.98
66506;HTU21D;53332;51.082;5.832;2024-01-07T15:02:31;1.43;118.95
66506;HTU21D;53332;51.082;5.832;2024-01-07T15:04:57;1.42;118.99
66506;HTU21D;53332;51.082;5.832;2024-01-07T15:07:23;1.18;117.95
66506;HTU21D;53332;51.082;5.832;2024-01-07T15:09:49;1.34;118.56
66506;HTU21D;53332;51.082;5.832;2024-01-07T15:12:15;1.12;118.15